Flight Track Log - Related Links

Times and Time Zones

All times are in EDT time to prevent confusion due to time zone crossing. See the UAL1062 flight status page for this flight to view local times or setup timezone preferences in your user account.

Time Position Orientation Groundspeed Altitude Reporting Facility
EDT Latitude Longitude Course Direction KTS MPH feet Rate Location/Type
Thu 06:03:13 PM 29.9549 -95.3375 240° Southwest 187 215 700  Level FlightAware ADS-B
Thu 06:03:17 PM 29.9524 -95.3353 143° Southeast 192 221 900 1,875 Climbing FlightAware ADS-B
Thu 06:03:29 PM 29.9445 -95.3257 134° Southeast 201 231 1,200 1,500 Climbing FlightAware ADS-B
Thu 06:03:45 PM 29.9345 -95.3115 129° Southeast 214 246 1,600 1,500 Climbing FlightAware ADS-B
Thu 06:04:01 PM 29.9248 -95.2974 128° Southeast 227 261 2,000 2,200 Climbing FlightAware ADS-B
Thu 06:04:15 PM 29.9151 -95.2836 129° Southeast 226 260 2,700 2,600 Climbing FlightAware ADS-B
Thu 06:04:31 PM 29.9050 -95.2688 128° Southeast 232 267 3,300 1,935 Climbing FlightAware ADS-B
Thu 06:04:46 PM 29.8947 -95.2537 128° Southeast 245 282 3,700 1,200 Climbing FlightAware ADS-B
Thu 06:05:01 PM 29.8836 -95.2372 128° Southeast 264 304 3,900 600 Climbing FlightAware ADS-B
Thu 06:05:16 PM 29.8721 -95.2199 127° Southeast 271 312 4,000 200 Climbing FlightAware ADS-B
Thu 06:05:31 PM 29.8604 -95.2027 128° Southeast 271 312 4,000 194 Level FlightAware ADS-B
Thu 06:05:47 PM 29.8478 -95.1845 129° Southeast 271 312 4,100 750 Climbing FlightAware ADS-B
Thu 06:06:03 PM 29.8358 -95.1674 129° Southeast 275 316 4,400 1,385 Climbing FlightAware ADS-B
Thu 06:06:13 PM 29.8278 -95.1557 128° Southeast 280 322 4,700 2,143 Climbing FlightAware ADS-B
Thu 06:06:17 PM 29.8247 -95.1506 125° Southeast 283 326 4,900 2,571 Climbing FlightAware ADS-B
Thu 06:06:20 PM 29.8224 -95.1464 122° Southeast 284 327 5,000 2,571 Climbing FlightAware ADS-B
Thu 06:06:24 PM 29.8200 -95.1411 118° Southeast 285 328 5,200 3,000 Climbing FlightAware ADS-B
Thu 06:06:28 PM 29.8178 -95.1354 114° Southeast 284 327 5,400 3,000 Climbing FlightAware ADS-B
Thu 06:06:32 PM 29.8163 -95.1304 109° East 284 327 5,600 2,571 Climbing FlightAware ADS-B
Thu 06:06:35 PM 29.8152 -95.1258 105° East 282 325 5,700 2,571 Climbing FlightAware ADS-B
Thu 06:06:39 PM 29.8143 -95.1205 101° East 281 323 5,900 3,429 Climbing FlightAware ADS-B
Thu 06:06:42 PM 29.8138 -95.1159 97° East 281 323 6,100 3,429 Climbing FlightAware ADS-B
Thu 06:06:46 PM 29.8135 -95.1097 93° East 281 323 6,300 2,308 Climbing FlightAware ADS-B
Thu 06:06:55 PM 29.8139 -95.0962 86° East 283 326 6,600 2,588 Climbing FlightAware ADS-B
Thu 06:07:37 PM 29.8182 -95.0318 85° East 287 330 8,500 2,113 Climbing FlightAware ADS-B
Thu 06:09:34 PM 29.8315 -94.8450 86° East 339 390 12,200 1,933 Climbing FlightAware ADS-B
Thu 06:11:05 PM 29.8417 -94.6757 86° East 366 421 15,200 2,027 Climbing FlightAware ADS-B
Thu 06:12:02 PM 29.8483 -94.5624 86° East 375 432 17,200 2,114 Climbing FlightAware ADS-B
Thu 06:12:33 PM 29.8519 -94.5020 86° East 377 434 18,300 1,461 Climbing FlightAware ADS-B
Thu 06:13:57 PM 29.8617 -94.3282 86° East 414 476 20,000 1,167 Climbing FlightAware ADS-B
Thu 06:14:57 PM 29.8584 -94.1907 92° East 436 502 21,100 1,187 Climbing FlightAware ADS-B
Thu 06:15:28 PM 29.8561 -94.1200 92° East 441 507 21,800 1,412 Climbing FlightAware ADS-B
Thu 06:16:05 PM 29.8556 -94.0312 88° East 447 514 22,700 1,304 Climbing FlightAware ADS-B
Thu 06:16:37 PM 29.8634 -93.9562 83° East 452 520 23,300 1,258 Climbing FlightAware ADS-B
Thu 06:17:07 PM 29.8712 -93.8828 83° East 455 524 24,000 1,475 Climbing FlightAware ADS-B
Thu 06:17:38 PM 29.8790 -93.8088 83° East 455 524 24,800 1,385 Climbing FlightAware ADS-B
Thu 06:18:12 PM 29.8875 -93.7281 83° East 458 527 25,500 1,108 Climbing FlightAware ADS-B
Thu 06:18:43 PM 29.8954 -93.6528 83° East 463 533 26,000 1,065 Climbing FlightAware ADS-B
Thu 06:19:14 PM 29.9035 -93.5753 83° East 466 536 26,600 1,371 Climbing FlightAware ADS-B
Thu 06:19:53 PM 29.9134 -93.4804 83° East 463 533 27,600 1,457 Climbing FlightAware ADS-B
Thu 06:20:24 PM 29.9213 -93.4044 83° East 462 532 28,300 1,333 Climbing FlightAware ADS-B
Thu 06:21:14 PM 29.9337 -93.2830 83° East 459 528 29,400 1,333 Climbing FlightAware ADS-B
Thu 06:21:45 PM 29.9412 -93.2086 83° East 458 527 30,100 1,302 Climbing FlightAware ADS-B
Thu 06:22:28 PM 29.9510 -93.1110 83° East 31,000 1,280 Climbing FlightAware ADS-B
Thu 06:23:00 PM 29.9600 -93.0276 83° East 450 518 31,700 1,215 Climbing FlightAware ADS-B
Thu 06:23:47 PM 29.9803 -92.9175 78° East 447 514 32,600 1,063 Climbing FlightAware ADS-B
Thu 06:24:19 PM 29.9937 -92.8448 78° East 447 514 33,100 952 Climbing FlightAware ADS-B
Thu 06:24:50 PM 30.0070 -92.7708 78° East 447 514 33,600 857 Climbing FlightAware ADS-B
Thu 06:25:29 PM 30.0224 -92.6809 79° East 447 514 34,100 676 Climbing FlightAware ADS-B
Thu 06:26:01 PM 30.0355 -92.6071 78° East 448 516 34,400 727 Climbing FlightAware ADS-B
Thu 06:26:35 PM 30.0501 -92.5270 78° East 448 516 34,900 545 Climbing FlightAware ADS-B
Thu 06:27:07 PM 30.0640 -92.4506 78° East 449 517 35,000 51 Climbing FlightAware ADS-B
Thu 06:28:33 PM 30.0998 -92.2508 78° East 449 517 35,000  Level FlightAware ADS-B
Thu 06:29:04 PM 30.1125 -92.1787 78° East 446 513 35,000  Level FlightAware ADS-B
Thu 06:30:10 PM 30.1364 -92.0475 78° East 446 513 35,000  Level Houston Center
Thu 06:31:12 PM 30.1586 -91.9100 79° East 439 505 35,000  Level Houston Center
Thu 06:32:14 PM 30.1842 -91.7697 78° East 445 512 35,000  Level Houston Center
Thu 06:33:16 PM 30.2106 -91.6153 79° East 441 507 35,000  Level Houston Center
Thu 06:34:18 PM 30.2347 -91.4758 79° East 442 509 35,000  Level Houston Center
Thu 06:39:47 PM 30.3650 -90.6930 79° East 436 502 35,000  Level FlightAware ADS-B
Thu 06:41:36 PM 30.4060 -90.4440 79° East 435 501 35,000  Level FlightAware ADS-B
Thu 06:44:14 PM 30.4760 -90.0870 77° East 438 504 35,000  Level FlightAware ADS-B
Thu 06:44:54 PM 30.5090 -89.9990 66° East 438 504 35,000  Level FlightAware ADS-B
Thu 06:45:38 PM 30.5430 -89.9070 67° East 439 505 35,000  Level FlightAware ADS-B
Thu 06:46:17 PM 30.5750 -89.8210 67° East 443 510 35,000  Level FlightAware ADS-B
Thu 06:47:04 PM 30.6120 -89.7210 67° East 444 511 35,000  Level FlightAware ADS-B
Thu 06:47:44 PM 30.6460 -89.6300 67° East 446 513 35,000  Level FlightAware ADS-B
Thu 06:48:29 PM 30.6820 -89.5330 67° East 446 513 35,000  Level FlightAware ADS-B
Thu 06:49:08 PM 30.7140 -89.4440 67° East 446 513 35,000  Level FlightAware ADS-B
Thu 06:49:48 PM 30.7460 -89.3570 67° East 445 512 35,000  Level FlightAware ADS-B
Thu 06:50:26 PM 30.7770 -89.2730 67° East 444 511 35,000  Level FlightAware ADS-B
Thu 06:51:08 PM 30.8110 -89.1800 67° East 442 509 35,000  Level FlightAware ADS-B
Thu 06:51:56 PM 30.8480 -89.0780 67° East 443 510 35,000  Level FlightAware ADS-B
Thu 06:52:38 PM 30.8810 -88.9880 67° East 444 511 35,000  Level FlightAware ADS-B
Thu 06:53:22 PM 30.9170 -88.8890 67° East 445 512 35,000  Level FlightAware ADS-B
Thu 06:54:04 PM 30.9510 -88.7940 67° East 445 512 35,000  Level FlightAware ADS-B
Thu 06:54:46 PM 30.9840 -88.7020 67° East 445 512 35,000  Level FlightAware ADS-B
Thu 06:55:24 PM 31.0140 -88.6180 67° East 442 509 35,000  Level FlightAware ADS-B
Thu 06:56:02 PM 31.0440 -88.5340 67° East 442 509 35,000  Level FlightAware ADS-B
Thu 06:57:03 PM 31.0880 -88.4110 67° East 442 509 35,000  Level FlightAware ADS-B
Thu 06:57:35 PM 31.1160 -88.3320 67° East 440 506 35,000  Level FlightAware ADS-B
Thu 06:58:13 PM 31.1430 -88.2580 67° East 440 506 35,000  Level FlightAware ADS-B
Thu 06:58:49 PM 31.1740 -88.1690 68° East 440 506 35,000  Level FlightAware ADS-B
Thu 06:59:39 PM 31.2120 -88.0700 66° East 438 504 35,000  Level FlightAware ADS-B
Thu 07:00:15 PM 31.2380 -88.0040 65° Northeast 438 504 35,000  Level FlightAware ADS-B
Thu 07:01:02 PM 31.2730 -87.9180 65° Northeast 438 504 35,000  Level FlightAware ADS-B
Thu 07:01:48 PM 31.3060 -87.8340 65° Northeast 438 504 35,000  Level FlightAware ADS-B
Thu 07:02:26 PM 31.3340 -87.7650 65° Northeast 438 504 35,000  Level FlightAware ADS-B
Thu 07:03:12 PM 31.3670 -87.6810 65° Northeast 438 504 35,000  Level FlightAware ADS-B
Thu 07:03:48 PM 31.3930 -87.6150 65° Northeast 438 504 35,000  Level FlightAware ADS-B
Thu 07:04:26 PM 31.4210 -87.5460 65° Northeast 438 504 35,000  Level FlightAware ADS-B
Thu 07:05:17 PM 31.4580 -87.4520 65° Northeast 438 504 35,000  Level FlightAware ADS-B
Thu 07:05:53 PM 31.4840 -87.3860 65° Northeast 438 504 35,000  Level FlightAware ADS-B
Thu 07:06:37 PM 31.5160 -87.3060 65° Northeast 438 504 35,000  Level FlightAware ADS-B
Thu 07:07:16 PM 31.5450 -87.2340 65° Northeast 438 504 35,000  Level FlightAware ADS-B
Thu 07:08:03 PM 31.5790 -87.1480 65° Northeast 438 504 35,000  Level FlightAware ADS-B
Thu 07:08:39 PM 31.6050 -87.0820 65° Northeast 438 504 35,000  Level FlightAware ADS-B
Thu 07:14:21 PM 32.0720 -86.2040 58° Northeast 442 509 35,000  Level FlightAware ADS-B
Thu 07:15:02 PM 32.0980 -86.1220 69° East 441 507 35,000  Level FlightAware ADS-B
Thu 07:15:42 PM 32.1260 -86.0350 69° East 441 507 35,000  Level FlightAware ADS-B
Thu 07:16:29 PM 32.1610 -85.9140 71° East 441 507 35,000  Level FlightAware ADS-B
Thu 07:17:07 PM 32.1860 -85.8310 70° East 441 507 35,000  Level FlightAware ADS-B
Thu 07:17:54 PM 32.2140 -85.7380 70° East 441 507 35,000  Level FlightAware ADS-B
Thu 07:18:30 PM 32.2350 -85.6690 70° East 441 507 35,000  Level FlightAware ADS-B
Thu 07:19:07 PM 32.2570 -85.5980 70° East 441 507 35,000  Level FlightAware ADS-B
Thu 07:20:25 PM 32.3460 -85.3930 63° Northeast 438 504 35,000  Level FlightAware ADS-B
Thu 07:21:05 PM 32.3980 -85.3220 49° Northeast 440 506 35,000  Level FlightAware ADS-B
Thu 07:21:42 PM 32.4450 -85.2570 49° Northeast 440 506 35,000  Level FlightAware ADS-B
Thu 07:22:31 PM 32.5100 -85.1660 50° Northeast 441 507 35,000  Level FlightAware ADS-B
Thu 07:23:07 PM 32.5590 -85.0980 49° Northeast 442 509 35,000  Level FlightAware ADS-B
Thu 07:23:51 PM 32.6180 -85.0200 48° Northeast 446 513 35,000  Level FlightAware ADS-B
Thu 07:24:31 PM 32.6690 -84.9520 48° Northeast 446 513 35,000  Level FlightAware ADS-B
Thu 07:25:19 PM 32.7250 -84.8780 48° Northeast 446 513 35,000  Level FlightAware ADS-B
Thu 07:26:01 PM 32.8080 -84.7910 41° Northeast 446 513 35,000  Level FlightAware ADS-B
Thu 07:26:39 PM 32.8640 -84.7260 44° Northeast 447 514 35,000  Level FlightAware ADS-B
Thu 07:27:27 PM 32.9350 -84.6460 43° Northeast 451 519 35,000  Level FlightAware ADS-B
Thu 07:28:07 PM 32.9930 -84.5690 48° Northeast 459 528 35,000  Level FlightAware ADS-B
Thu 07:28:51 PM 33.0520 -84.4840 50° Northeast 460 529 35,000  Level FlightAware ADS-B
Thu 07:29:31 PM 33.1080 -84.4050 50° Northeast 462 532 35,000  Level FlightAware ADS-B
Thu 07:30:11 PM 33.1630 -84.3270 50° Northeast 460 529 35,000  Level FlightAware ADS-B
Thu 07:30:55 PM 33.2220 -84.2430 50° Northeast 464 534 35,000  Level FlightAware ADS-B
Thu 07:31:39 PM 33.2840 -84.1540 50° Northeast 467 537 35,000  Level FlightAware ADS-B
Thu 07:32:19 PM 33.3400 -84.0740 50° Northeast 468 539 35,000  Level FlightAware ADS-B
Thu 07:33:03 PM 33.4070 -83.9940 45° Northeast 465 535 35,000  Level FlightAware ADS-B
Thu 07:33:42 PM 33.4700 -83.9340 38° Northeast 462 532 35,000  Level FlightAware ADS-B
Thu 07:33:51 PM 33.4863 -83.9182 39° Northeast 462 532 35,000  Level FlightAware ADS-B
Thu 07:34:23 PM 33.5400 -83.8670 38° Northeast 461 531 35,000  Level FlightAware ADS-B
Thu 07:35:07 PM 33.6130 -83.7970 39° Northeast 462 532 35,000  Level FlightAware ADS-B
Thu 07:35:41 PM 33.6700 -83.7430 38° Northeast 462 532 35,000  Level FlightAware ADS-B
Thu 07:36:33 PM 33.7580 -83.6600 38° Northeast 459 528 35,000  Level FlightAware ADS-B
Thu 07:37:09 PM 33.8160 -83.6050 38° Northeast 459 528 35,000  Level FlightAware ADS-B
Thu 07:37:49 PM 33.8850 -83.5410 38° Northeast 459 528 35,000  Level FlightAware ADS-B
Thu 07:38:35 PM 33.9600 -83.4710 38° Northeast 463 533 35,000  Level FlightAware ADS-B
Thu 07:39:14 PM 34.0282 -83.4060 38° Northeast 468 539 35,000  Level FlightAware ADS-B
Thu 07:39:44 PM 34.0799 -83.3574 38° Northeast 470 541 35,000  Level FlightAware ADS-B
Thu 07:40:42 PM 34.1800 -83.2638 38° Northeast 470 541 35,000  Level FlightAware ADS-B
Thu 07:41:20 PM 34.2446 -83.2038 38° Northeast 471 542 35,000  Level FlightAware ADS-B
Thu 07:42:02 PM 34.3190 -83.1354 37° Northeast 475 547 35,000  Level FlightAware ADS-B
Thu 07:42:33 PM 34.3728 -83.0862 37° Northeast 478 550 35,000  Level FlightAware ADS-B
Thu 07:43:11 PM 34.4396 -83.0245 37° Northeast 477 549 35,000  Level FlightAware ADS-B
Thu 07:43:45 PM 34.4986 -82.9699 37° Northeast 474 545 35,000  Level FlightAware ADS-B
Thu 07:44:17 PM 34.5539 -82.9188 37° Northeast 469 540 35,000  Level FlightAware ADS-B
Thu 07:44:52 PM 34.6149 -82.8624 37° Northeast 469 540 35,000  Level FlightAware ADS-B
Thu 07:45:26 PM 34.6720 -82.8098 37° Northeast 467 537 35,000  Level FlightAware ADS-B
Thu 07:46:01 PM 34.7324 -82.7542 37° Northeast 468 539 35,000  Level FlightAware ADS-B
Thu 07:46:32 PM 34.7865 -82.7048 37° Northeast 472 543 35,000  Level FlightAware ADS-B
Thu 07:47:02 PM 34.8398 -82.6564 37° Northeast 472 543 35,000  Level FlightAware ADS-B
Thu 07:47:33 PM 34.8935 -82.6074 37° Northeast 473 544 35,000  Level FlightAware ADS-B
Thu 07:48:03 PM 34.9467 -82.5585 37° Northeast 475 547 35,000  Level FlightAware ADS-B
Thu 07:48:24 PM 34.9838 -82.5243 37° Northeast 476 548 35,000  Level FlightAware ADS-B
Thu 07:48:40 PM 35.0093 -82.4953 43° Northeast 479 551 35,000  Level FlightAware ADS-B
Thu 07:49:10 PM 35.0516 -82.4321 51° Northeast 482 555 35,000  Level FlightAware ADS-B
Thu 07:49:41 PM 35.0915 -82.3661 54° Northeast 482 555 35,000  Level FlightAware ADS-B
Thu 07:50:11 PM 35.1313 -82.2997 54° Northeast 481 554 35,000  Level FlightAware ADS-B
Thu 07:50:41 PM 35.1713 -82.2327 54° Northeast 480 552 35,000  Level FlightAware ADS-B
Thu 07:51:12 PM 35.2109 -82.1670 54° Northeast 478 550 35,000  Level FlightAware ADS-B
Thu 07:51:42 PM 35.2513 -82.1012 53° Northeast 480 552 35,000  Level FlightAware ADS-B
Thu 07:52:14 PM 35.2947 -82.0314 53° Northeast 480 552 35,000  Level FlightAware ADS-B
Thu 07:52:45 PM 35.3352 -81.9663 53° Northeast 482 555 35,000 -98 Level FlightAware ADS-B
Thu 07:53:15 PM 35.3735 -81.8968 56° Northeast 483 556 34,900 -439 Descending FlightAware ADS-B
Thu 07:53:26 PM 35.3856 -81.8730 58° Northeast 481 554 34,700 -1,034 Descending FlightAware ADS-B
Thu 07:53:44 PM 35.4048 -81.8291 62° Northeast 482 555 34,400 -1,375 Descending FlightAware ADS-B
Thu 07:54:14 PM 35.4328 -81.7527 66° East 485 558 33,600 -1,770 Descending FlightAware ADS-B
Thu 07:54:45 PM 35.4597 -81.6757 67° East 476 548 32,600 -1,406 Descending FlightAware ADS-B
Thu 07:55:18 PM 35.4877 -81.5963 67° East 468 539 32,100 -1,000 Descending FlightAware ADS-B
Thu 07:55:51 PM 35.5158 -81.5158 67° East 468 539 31,500 -1,015 Descending FlightAware ADS-B
Thu 07:56:23 PM 35.5435 -81.4370 67° East 468 539 31,000 -417 Descending FlightAware ADS-B
Thu 07:57:03 PM 35.5770 -81.3420 67° East 467 537 31,000  Level FlightAware ADS-B
Thu 07:57:11 PM 35.5842 -81.3218 66° East 468 539 31,000  Level FlightAware ADS-B
Thu 07:57:43 PM 35.6110 -81.2440 67° East 467 537 31,000  Level FlightAware ADS-B
Thu 07:57:55 PM 35.6217 -81.2143 66° East 467 537 31,000  Level FlightAware ADS-B
Thu 07:58:41 PM 35.6600 -81.1060 66° East 466 536 31,000  Level FlightAware ADS-B
Thu 07:59:21 PM 35.6940 -81.0060 67° East 468 539 31,000  Level FlightAware ADS-B
Thu 08:00:03 PM 35.7300 -80.9020 67° East 472 543 31,000  Level FlightAware ADS-B
Thu 08:00:47 PM 35.7680 -80.7930 67° East 476 548 31,000  Level FlightAware ADS-B
Thu 08:01:23 PM 35.7980 -80.7050 67° East 476 548 31,000  Level FlightAware ADS-B
Thu 08:02:11 PM 35.8390 -80.5840 67° East 475 547 31,000  Level FlightAware ADS-B
Thu 08:02:53 PM 35.8750 -80.4810 67° East 473 544 31,000  Level FlightAware ADS-B
Thu 08:03:35 PM 35.9110 -80.3740 67° East 473 544 31,000  Level FlightAware ADS-B
Thu 08:04:11 PM 35.9370 -80.2980 67° East 474 545 31,000  Level FlightAware ADS-B
Thu 08:05:12 PM 35.9910 -80.1410 67° East 478 550 31,000  Level FlightAware ADS-B
Thu 08:05:53 PM 36.0260 -80.0360 68° East 31,000  Level FlightAware ADS-B
Thu 08:06:37 PM 36.0790 -79.9440 55° Northeast 468 539 31,000  Level FlightAware ADS-B
Thu 08:07:15 PM 36.1550 -79.8930 28° Northeast 447 514 31,000  Level FlightAware ADS-B
Thu 08:08:25 PM 36.2990 -79.8840 North 447 514 31,000  Level FlightAware ADS-B
Thu 08:09:07 PM 36.3780 -79.8940 354° North 436 502 31,000  Level FlightAware ADS-B
Thu 08:10:05 PM 36.5060 -79.9190 351° North 437 503 31,000  Level FlightAware ADS-B
Thu 08:10:45 PM 36.5830 -79.9320 352° North 437 503 31,000  Level FlightAware ADS-B
Thu 08:11:47 PM 36.6880 -79.9530 351° North 437 503 31,000  Level FlightAware ADS-B
Thu 08:12:28 PM 36.7580 -79.9670 351° North 437 503 31,000  Level FlightAware ADS-B
Thu 08:13:04 PM 36.8190 -79.9790 351° North 437 503 31,000  Level FlightAware ADS-B
Thu 08:13:51 PM 36.9640 -79.8930 25° Northeast 455 524 31,000 -371 Level FlightAware ADS-B
Thu 08:14:41 PM 37.0700 -79.8660 11° North 453 521 30,400 -821 Descending FlightAware ADS-B
Thu 08:15:26 PM 37.1510 -79.8450 12° North 457 526 29,700 -710 Descending FlightAware ADS-B
Thu 08:16:14 PM 37.2570 -79.8190 11° North 457 526 29,300 -467 Descending FlightAware ADS-B
Thu 08:16:56 PM 37.3360 -79.7980 12° North 459 528 29,000 -237 Descending FlightAware ADS-B
Thu 08:17:30 PM 37.3960 -79.7820 12° North 459 528 29,000  Level FlightAware ADS-B
Thu 08:18:18 PM 37.4800 -79.7590 12° North 459 528 29,000  Level FlightAware ADS-B
Thu 08:18:57 PM 37.5490 -79.7410 12° North 459 528 29,000  Level FlightAware ADS-B
Thu 08:19:34 PM 37.6140 -79.7230 12° North 459 528 29,000  Level FlightAware ADS-B
Thu 08:20:23 PM 37.7010 -79.7000 12° North 459 528 29,000 -1,129 Level FlightAware ADS-B
Thu 08:21:15 PM 37.8936 -79.6600 12° North 455 524 27,100 -1,768 Descending Washington Center
Thu 08:22:15 PM 38.0200 -79.6272 12° North 455 524 25,700 -1,462 Descending Washington Center
Thu 08:23:14 PM 38.1336 -79.5964 12° North 455 524 24,200 -857 Descending Washington Center
Thu 08:24:14 PM 38.2425 -79.5203 29° Northeast 438 504 24,000 -1,356 Descending Washington Center
Thu 08:29:39 PM 38.5770 -78.7370 29° Northeast 419 482 15,500 -1,627 Descending FlightAware ADS-B
Thu 08:30:19 PM 38.6120 -78.6550 61° Northeast 408 470 14,100 -2,118 Descending FlightAware ADS-B
Thu 08:31:04 PM 38.6530 -78.5590 61° Northeast 397 457 12,500 -1,694 Descending FlightAware ADS-B
Thu 08:31:44 PM 38.6880 -78.4770 61° Northeast 374 430 11,700 -847 Descending FlightAware ADS-B
Thu 08:32:29 PM 38.7230 -78.3950 61° Northeast 335 386 11,300 -353 Descending FlightAware ADS-B
Thu 08:33:09 PM 38.7600 -78.3360 51° Northeast 317 365 11,200 -706 Descending FlightAware ADS-B
Thu 08:33:54 PM 38.8030 -78.2770 47° Northeast 317 365 10,300 -1,120 Descending FlightAware ADS-B
Thu 08:34:24 PM 38.8320 -78.2370 47° Northeast 297 342 9,800 -1,200 Descending FlightAware ADS-B
Thu 08:34:49 PM 38.8530 -78.2030 52° Northeast 296 341 9,200 -1,500 Descending FlightAware ADS-B
Thu 08:35:04 PM 38.8610 -78.1780 68° East 300 345 8,800 -1,600 Descending FlightAware ADS-B
Thu 08:35:34 PM 38.8740 -78.1280 72° East 304 350 8,000 -1,527 Descending FlightAware ADS-B
Thu 08:35:59 PM 38.8850 -78.0840 72° East 303 349 7,400 -873 Descending FlightAware ADS-B
Thu 08:36:29 PM 38.8970 -78.0350 73° East 291 335 7,200 -545 Descending FlightAware ADS-B
Thu 08:36:54 PM 38.9080 -77.9930 71° East 287 330 6,900 -900 Descending FlightAware ADS-B
Thu 08:37:09 PM 38.9140 -77.9670 73° East 289 333 6,600 -933 Descending FlightAware ADS-B
Thu 08:37:39 PM 38.9260 -77.9190 72° East 286 329 6,200 -436 Descending FlightAware ADS-B
Thu 08:38:04 PM 38.9360 -77.8790 72° East 284 327 6,200 109 Level FlightAware ADS-B
Thu 08:38:34 PM 38.9480 -77.8310 72° East 286 329 6,300  Climbing FlightAware ADS-B
Thu 08:38:59 PM 38.9580 -77.7900 73° East 287 330 6,200  Descending FlightAware ADS-B
Thu 08:39:28 PM 38.9640 -77.7490 79° East 288 331 6,300  Climbing FlightAware ADS-B
Thu 08:39:59 PM 38.9580 -77.6880 97° East 292 336 6,200  Descending FlightAware ADS-B
Thu 08:41:09 PM 38.9930 -77.5900 65° Northeast 280 322 6,300 -60 Climbing FlightAware ADS-B
Thu 08:41:39 PM 39.0290 -77.5750 18° North 256 295 6,100 -912 Descending FlightAware ADS-B
Thu 08:43:14 PM 39.1240 -77.5440 14° North 253 291 4,400 -1,200 Descending FlightAware ADS-B
Thu 08:43:24 PM 39.1250 -77.5320 84° East 254 292 4,000 -1,742 Descending FlightAware ADS-B
Thu 08:43:45 PM 39.1170 -77.5040 110° East 249 287 3,500 -1,313 Descending FlightAware ADS-B
Thu 08:43:56 PM 39.1070 -77.4930 140° Southeast 235 270 3,300 -1,667 Descending FlightAware ADS-B
Thu 08:44:03 PM 39.1000 -77.4833 159° South 250 288 3,000 -462 Descending Potomac TRACON
Thu 08:44:35 PM 39.0760 -77.4680 148° Southeast 193 222 3,000 -900 Level FlightAware ADS-B
Thu 08:45:03 PM 39.0500 -77.4667 165° South 181 208 2,100 -1,929 Descending Potomac TRACON
Thu 08:49:00 PM 38.9474 -77.4599 159° South  Level Estimated

Login

Don't have an account? Register now (free) for customized features, flight alerts, and more!